Time;durP1;ratioP1;P1;durP2;ratioP2;P2;SDS_P1;SDS_P2;PMS_P1;PMS_P2;Temp;Humidity;BMP_temperature;BMP_pressure;BME280_temperature;BME280_humidity;BME280_pressure;Samples;Min_cycle;Max_cycle;Signal;HPM_P1;HPM_P2
2022/05/16 00:02:09;;;;;;;10.87;7.90;;;21.70;77.50;;;;;;5081531;28;20288;-71
2022/05/16 00:04:41;;;;;;;8.07;7.03;;;21.70;77.60;;;;;;5070841;28;20237;-71
2022/05/16 00:07:09;;;;;;;7.97;6.70;;;21.70;77.50;;;;;;5078933;28;20289;-71
2022/05/16 00:09:36;;;;;;;11.40;6.83;;;21.60;77.30;;;;;;5083714;28;20633;-71
2022/05/16 00:12:05;;;;;;;11.97;6.77;;;21.60;77.30;;;;;;5080086;28;20224;-71
2022/05/16 00:14:32;;;;;;;9.93;7.50;;;21.60;77.20;;;;;;5070755;28;20217;-71
2022/05/16 00:16:59;;;;;;;9.53;6.77;;;21.60;77.00;;;;;;5046365;28;20213;-71
2022/05/16 00:19:27;;;;;;;13.50;7.10;;;21.60;77.00;;;;;;5085160;28;20518;-71
2022/05/16 00:21:54;;;;;;;11.57;7.70;;;21.60;77.10;;;;;;5097996;28;20212;-71
2022/05/16 00:24:26;;;;;;;9.97;6.90;;;21.60;77.20;;;;;;5076404;28;20336;-71
2022/05/16 00:26:54;;;;;;;7.50;6.80;;;21.60;77.20;;;;;;5086130;28;20211;-71
2022/05/16 00:29:21;;;;;;;10.23;7.10;;;21.50;77.20;;;;;;5103162;28;20213;-71
2022/05/16 00:31:48;;;;;;;9.67;6.63;;;21.50;77.20;;;;;;5100396;28;20220;-71
2022/05/16 00:34:16;;;;;;;8.67;6.90;;;21.50;77.00;;;;;;5099402;28;20201;-71
2022/05/16 00:36:47;;;;;;;10.53;6.70;;;21.50;77.10;;;;;;5104589;28;20278;-71
2022/05/16 00:39:18;;;;;;;7.37;6.67;;;21.50;77.30;;;;;;5085391;28;20635;-71
2022/05/16 00:41:47;;;;;;;11.80;6.50;;;21.50;77.50;;;;;;5087022;28;20205;-71
2022/05/16 00:44:15;;;;;;;10.83;6.43;;;21.50;77.60;;;;;;5078607;28;20201;-71
2022/05/16 00:46:42;;;;;;;10.47;7.00;;;21.50;77.70;;;;;;5090572;28;20206;-71
2022/05/16 00:49:29;;;;;;;12.87;7.07;;;21.50;77.80;;;;;;5079558;28;20635;-71
2022/05/16 00:51:56;;;;;;;9.80;6.10;;;21.50;77.90;;;;;;5085430;28;20323;-71
2022/05/16 00:54:28;;;;;;;11.97;7.03;;;21.50;77.90;;;;;;5103727;28;20223;-71
2022/05/16 00:57:01;;;;;;;8.70;6.87;;;21.50;77.90;;;;;;5075001;28;20212;-71
2022/05/16 01:00:09;;;;;;;7.97;7.03;;;21.50;77.90;;;;;;5095032;28;20242;-71
2022/05/16 01:05:29;;;;;;;8.20;6.90;;;21.50;77.90;;;;;;5098083;28;20219;-71
2022/05/16 01:07:59;;;;;;;11.80;7.43;;;21.40;77.90;;;;;;5085343;28;20212;-71
2022/05/16 01:10:26;;;;;;;11.93;7.60;;;21.40;78.00;;;;;;5072308;28;20194;-71
2022/05/16 01:12:54;;;;;;;11.80;7.80;;;21.40;78.20;;;;;;5085743;28;20227;-71
2022/05/16 01:15:29;;;;;;;13.20;7.67;;;21.30;78.40;;;;;;5074769;28;20650;-71
2022/05/16 01:17:56;;;;;;;11.63;7.70;;;21.30;78.70;;;;;;5081605;28;20704;-71
2022/05/16 01:20:28;;;;;;;11.60;7.93;;;21.30;78.70;;;;;;5059508;28;20206;-71
2022/05/16 01:22:55;;;;;;;9.03;7.43;;;21.30;78.70;;;;;;5083842;28;20236;-71
2022/05/16 01:25:29;;;;;;;12.03;7.63;;;21.30;78.80;;;;;;5091258;28;20215;-71
2022/05/16 01:28:04;;;;;;;12.93;7.83;;;21.30;78.90;;;;;;5074729;28;20240;-71
2022/05/16 01:30:40;;;;;;;10.70;7.40;;;21.20;78.90;;;;;;5071831;28;20737;-71
2022/05/16 01:33:07;;;;;;;10.17;8.30;;;21.20;79.00;;;;;;5084138;28;20227;-71
2022/05/16 01:35:34;;;;;;;17.23;7.60;;;21.10;78.90;;;;;;5081712;28;20262;-71
2022/05/16 01:38:22;;;;;;;10.57;8.10;;;21.10;78.90;;;;;;5083648;28;20531;-71
2022/05/16 01:40:58;;;;;;;9.37;6.87;;;21.10;78.90;;;;;;5074149;28;20223;-72
2022/05/16 01:43:32;;;;;;;12.77;7.50;;;21.10;78.90;;;;;;5083262;28;20222;-71
2022/05/16 01:45:59;;;;;;;12.10;7.70;;;21.00;79.00;;;;;;5084525;28;20214;-71
2022/05/16 01:48:30;;;;;;;9.33;6.83;;;21.00;79.00;;;;;;5101018;28;20212;-71
2022/05/16 01:51:03;;;;;;;9.53;7.30;;;21.00;79.00;;;;;;5077214;28;20220;-71
2022/05/16 01:53:30;;;;;;;11.57;7.67;;;21.00;79.20;;;;;;5084883;28;20741;-71
2022/05/16 01:55:58;;;;;;;8.97;7.17;;;21.00;79.10;;;;;;5087671;28;20514;-71
2022/05/16 01:58:25;;;;;;;11.20;7.30;;;21.00;79.00;;;;;;5083180;28;20200;-71
2022/05/16 02:00:53;;;;;;;10.50;7.23;;;21.00;79.00;;;;;;5091687;28;20204;-71
2022/05/16 02:03:21;;;;;;;9.57;6.93;;;21.00;78.90;;;;;;5083721;28;20205;-71
2022/05/16 02:05:49;;;;;;;14.03;7.67;;;21.00;78.80;;;;;;5058870;28;20231;-71
2022/05/16 02:08:17;;;;;;;16.53;8.13;;;21.00;78.80;;;;;;5063945;28;20189;-71
2022/05/16 02:10:46;;;;;;;9.23;7.20;;;21.00;78.80;;;;;;5084646;28;20196;-71
2022/05/16 02:13:14;;;;;;;12.30;7.47;;;20.90;78.70;;;;;;5080934;28;20316;-71
2022/05/16 02:15:43;;;;;;;7.43;6.73;;;20.90;78.80;;;;;;5068523;28;20846;-71
2022/05/16 02:18:10;;;;;;;12.37;7.83;;;20.90;78.70;;;;;;5081020;28;20238;-71
2022/05/16 02:20:37;;;;;;;11.80;7.60;;;20.90;79.20;;;;;;5087019;28;20209;-71
2022/05/16 02:25:53;;;;;;;11.90;7.03;;;20.80;78.70;;;;;;5078534;28;20281;-71
2022/05/16 02:28:22;;;;;;;7.77;6.97;;;20.80;79.10;;;;;;5078881;28;20223;-71
2022/05/16 02:30:52;;;;;;;11.80;7.67;;;20.80;79.50;;;;;;5098066;28;20209;-71
2022/05/16 02:33:20;;;;;;;13.43;8.47;;;20.70;79.70;;;;;;5067681;28;20809;-71
2022/05/16 02:35:48;;;;;;;11.47;7.40;;;20.70;79.80;;;;;;5076541;28;20210;-71
2022/05/16 02:38:18;;;;;;;14.23;7.67;;;20.60;79.80;;;;;;5093342;28;20204;-71
2022/05/16 02:40:46;;;;;;;9.43;7.23;;;20.60;79.50;;;;;;5073249;28;20208;-71
2022/05/16 02:43:13;;;;;;;13.00;7.17;;;20.60;79.70;;;;;;5091841;28;20212;-71
2022/05/16 02:45:41;;;;;;;17.63;7.10;;;20.60;79.70;;;;;;5090069;28;20197;-71
2022/05/16 02:48:09;;;;;;;10.30;7.57;;;20.60;79.80;;;;;;5095717;28;20200;-71
2022/05/16 02:50:36;;;;;;;8.60;7.50;;;20.50;79.60;;;;;;5082694;28;20227;-71
2022/05/16 02:53:03;;;;;;;10.67;7.40;;;20.50;79.40;;;;;;5063699;28;20318;-71
2022/05/16 02:55:32;;;;;;;8.30;7.13;;;20.50;79.60;;;;;;5092962;28;20220;-71
2022/05/16 02:58:00;;;;;;;8.20;7.43;;;20.50;79.80;;;;;;5074380;28;20225;-71
2022/05/16 03:00:27;;;;;;;9.10;7.13;;;20.40;79.70;;;;;;5089717;28;20612;-71
2022/05/16 03:02:54;;;;;;;11.23;7.30;;;20.40;79.80;;;;;;5073786;28;20211;-71
2022/05/16 03:05:21;;;;;;;9.90;7.50;;;20.40;79.70;;;;;;5091350;28;20265;-71
2022/05/16 03:07:48;;;;;;;9.97;6.90;;;20.40;79.50;;;;;;5076495;28;20216;-71
2022/05/16 03:10:16;;;;;;;10.27;7.47;;;20.40;79.40;;;;;;5080697;28;20202;-71
2022/05/16 03:12:45;;;;;;;12.27;7.53;;;20.40;79.40;;;;;;5056006;28;20660;-71
2022/05/16 03:15:14;;;;;;;8.57;6.53;;;20.40;79.40;;;;;;5061246;28;20200;-71
2022/05/16 03:17:43;;;;;;;10.23;7.50;;;20.40;79.40;;;;;;5073386;28;20220;-71
2022/05/16 03:20:12;;;;;;;9.20;6.67;;;20.30;79.30;;;;;;5080219;28;20216;-71
2022/05/16 03:22:41;;;;;;;8.70;6.77;;;20.30;79.20;;;;;;5071384;28;20259;-71
2022/05/16 03:25:09;;;;;;;8.93;7.37;;;20.20;79.10;;;;;;5059951;28;20219;-71
2022/05/16 03:27:36;;;;;;;9.07;7.13;;;20.20;79.10;;;;;;5055218;28;20267;-71
2022/05/16 03:30:05;;;;;;;11.47;7.83;;;20.10;79.20;;;;;;5062807;28;20208;-71
2022/05/16 03:32:32;;;;;;;8.20;6.60;;;20.10;79.40;;;;;;5061562;28;20616;-71
2022/05/16 03:34:59;;;;;;;12.50;7.03;;;20.10;79.50;;;;;;5097217;28;20499;-71
2022/05/16 03:37:27;;;;;;;14.07;7.47;;;20.10;79.50;;;;;;5088414;28;20201;-71
2022/05/16 03:42:40;;;;;;;9.03;6.80;;;20.10;79.50;;;;;;5068867;28;20242;-71
2022/05/16 03:45:07;;;;;;;11.17;7.37;;;20.10;79.50;;;;;;5067746;28;20596;-71
2022/05/16 03:47:35;;;;;;;8.30;6.70;;;20.10;79.60;;;;;;5055662;28;20569;-71
2022/05/16 03:50:02;;;;;;;11.57;7.83;;;20.00;79.60;;;;;;5052677;28;20213;-71
2022/05/16 03:52:29;;;;;;;10.53;7.50;;;20.00;79.70;;;;;;5057583;28;20616;-71
2022/05/16 03:54:56;;;;;;;10.23;7.13;;;20.00;79.80;;;;;;5099232;28;20236;-71
2022/05/16 03:57:23;;;;;;;15.63;6.87;;;20.00;79.90;;;;;;5068496;28;20208;-71
2022/05/16 03:59:50;;;;;;;10.33;6.83;;;19.90;79.90;;;;;;5071270;28;20254;-71
2022/05/16 04:02:17;;;;;;;9.37;7.27;;;19.90;80.00;;;;;;5061931;28;20208;-71
2022/05/16 04:04:45;;;;;;;7.67;6.87;;;19.90;80.00;;;;;;5071255;28;20239;-71
2022/05/16 04:07:12;;;;;;;12.57;7.63;;;19.90;80.10;;;;;;5061686;28;20204;-71
2022/05/16 04:09:39;;;;;;;9.83;7.03;;;19.90;80.00;;;;;;5061802;28;20208;-71
2022/05/16 04:12:06;;;;;;;10.17;6.90;;;19.90;80.00;;;;;;5072604;28;20198;-71
2022/05/16 04:14:34;;;;;;;9.77;7.03;;;19.90;80.00;;;;;;5061930;28;20219;-71
2022/05/16 04:17:01;;;;;;;8.67;7.13;;;20.00;80.00;;;;;;5071149;28;20204;-71
2022/05/16 04:19:28;;;;;;;14.27;7.83;;;20.00;80.00;;;;;;5073841;28;20292;-71
2022/05/16 04:21:55;;;;;;;27.60;8.30;;;20.00;80.10;;;;;;5099980;28;20197;-71
2022/05/16 04:24:22;;;;;;;16.50;8.37;;;20.10;80.20;;;;;;5080261;28;20270;-71
2022/05/16 04:26:50;;;;;;;14.13;7.27;;;20.10;80.10;;;;;;5066692;28;20218;-71
2022/05/16 04:29:17;;;;;;;14.53;7.60;;;20.10;79.90;;;;;;5094007;28;20658;-71
2022/05/16 04:31:44;;;;;;;11.10;8.57;;;20.20;80.10;;;;;;5085056;28;20204;-71
2022/05/16 04:34:11;;;;;;;14.10;8.70;;;20.20;80.30;;;;;;5091015;28;20235;-71
2022/05/16 04:36:41;;;;;;;13.40;10.70;;;20.20;80.40;;;;;;5103386;28;20220;-71
2022/05/16 04:39:08;;;;;;;15.63;9.20;;;20.40;80.50;;;;;;5078142;28;20522;-71
2022/05/16 04:44:21;;;;;;;13.13;10.50;;;20.50;80.10;;;;;;5085979;28;20234;-71
2022/05/16 04:46:49;;;;;;;14.83;9.93;;;20.60;80.00;;;;;;5103165;28;20204;-71
2022/05/16 04:49:16;;;;;;;11.07;9.10;;;20.70;79.90;;;;;;5077728;28;20306;-71
2022/05/16 04:51:43;;;;;;;23.33;10.10;;;20.80;79.60;;;;;;5102045;28;20215;-71
2022/05/16 04:54:10;;;;;;;18.37;8.73;;;20.90;79.40;;;;;;5076814;28;20229;-71
2022/05/16 04:56:37;;;;;;;15.93;10.10;;;21.00;79.30;;;;;;5076011;28;20301;-71
2022/05/16 04:59:05;;;;;;;11.53;9.23;;;21.00;79.10;;;;;;5077705;28;20205;-71
2022/05/16 05:01:33;;;;;;;13.27;9.73;;;21.10;79.00;;;;;;5077009;28;20219;-71
2022/05/16 05:04:00;;;;;;;12.07;9.53;;;21.20;78.70;;;;;;5091230;28;20215;-71
2022/05/16 05:06:27;;;;;;;12.70;9.87;;;21.40;78.40;;;;;;5075614;28;20285;-71
2022/05/16 05:08:54;;;;;;;12.37;9.27;;;21.60;78.10;;;;;;5092063;28;20205;-71
2022/05/16 05:16:53;;;;;;;13.77;10.10;;;21.80;77.40;;;;;;5077252;28;20220;-71
2022/05/16 05:19:20;;;;;;;11.80;10.10;;;21.80;77.20;;;;;;5087440;28;20201;-71
2022/05/16 05:21:47;;;;;;;12.53;9.47;;;21.90;77.20;;;;;;5088080;28;20200;-72
2022/05/16 05:24:15;;;;;;;18.87;10.00;;;21.90;76.90;;;;;;5073594;28;20246;-71
2022/05/16 05:26:43;;;;;;;10.23;9.33;;;22.10;76.60;;;;;;5070307;28;20209;-71
2022/05/16 05:29:15;;;;;;;12.77;9.33;;;22.30;76.00;;;;;;5085458;28;20243;-71
2022/05/16 05:31:43;;;;;;;10.20;9.20;;;22.40;75.60;;;;;;5059009;28;20213;-71
2022/05/16 05:34:11;;;;;;;11.87;10.27;;;22.60;75.30;;;;;;5086946;28;20248;-71
2022/05/16 05:36:40;;;;;;;16.00;9.77;;;22.70;74.80;;;;;;5099264;28;20231;-71
2022/05/16 05:39:09;;;;;;;17.17;10.10;;;22.90;74.40;;;;;;5093044;28;20204;-71
2022/05/16 05:41:36;;;;;;;17.40;10.23;;;23.00;74.40;;;;;;5089154;28;20224;-72
2022/05/16 05:44:03;;;;;;;13.07;10.03;;;23.10;74.30;;;;;;5089556;28;20210;-72
2022/05/16 05:46:39;;;;;;;11.63;10.43;;;23.10;73.80;;;;;;5088659;28;20240;-71
2022/05/16 05:49:09;;;;;;;13.07;9.93;;;23.20;73.70;;;;;;5083900;28;20235;-71
2022/05/16 05:51:37;;;;;;;11.70;10.50;;;23.30;73.50;;;;;;5081541;28;20206;-72
2022/05/16 05:54:05;;;;;;;17.17;10.30;;;23.40;73.10;;;;;;5075908;28;20278;-72
2022/05/16 05:56:33;;;;;;;14.97;9.93;;;23.50;72.60;;;;;;5082287;28;20204;-72
2022/05/16 05:59:00;;;;;;;14.37;9.87;;;23.60;72.30;;;;;;5092348;28;20202;-73
2022/05/16 06:01:27;;;;;;;14.23;10.43;;;23.70;71.60;;;;;;5076346;28;20197;-73
2022/05/16 06:03:56;;;;;;;13.80;10.97;;;23.80;71.60;;;;;;5105187;28;20228;-72
2022/05/16 06:06:25;;;;;;;15.03;10.43;;;23.90;70.90;;;;;;5090871;28;20228;-71
2022/05/16 06:08:52;;;;;;;15.07;10.50;;;24.00;70.10;;;;;;5070372;28;20213;-71
2022/05/16 06:11:21;;;;;;;15.90;10.10;;;24.10;69.80;;;;;;5090403;28;20211;-71
2022/05/16 06:13:48;;;;;;;17.13;9.87;;;24.10;69.60;;;;;;5081772;28;20236;-71
2022/05/16 06:16:15;;;;;;;15.50;10.30;;;24.20;69.60;;;;;;5095299;28;20205;-72
2022/05/16 06:18:43;;;;;;;16.63;9.87;;;24.30;69.40;;;;;;5068780;28;20292;-71
2022/05/16 06:21:10;;;;;;;14.93;10.67;;;24.40;69.10;;;;;;5078708;28;20206;-72
2022/05/16 06:23:37;;;;;;;13.67;10.67;;;24.50;68.50;;;;;;5103871;28;20287;-72
2022/05/16 06:26:05;;;;;;;14.47;10.17;;;24.60;68.50;;;;;;5072825;28;20643;-72
2022/05/16 06:28:37;;;;;;;13.47;10.73;;;24.70;68.50;;;;;;5085076;28;20205;-72
2022/05/16 06:31:05;;;;;;;12.43;9.10;;;24.80;68.00;;;;;;5072498;28;20213;-72
2022/05/16 06:33:33;;;;;;;11.60;10.33;;;24.90;67.80;;;;;;5070560;28;20308;-71
2022/05/16 06:36:01;;;;;;;15.73;10.77;;;25.10;67.90;;;;;;5087649;28;20304;-71
2022/05/16 06:38:31;;;;;;;13.90;9.73;;;25.20;67.10;;;;;;5068395;28;20241;-71
2022/05/16 06:40:59;;;;;;;14.70;10.03;;;25.30;66.20;;;;;;5075011;28;20197;-71
2022/05/16 06:43:28;;;;;;;16.77;10.77;;;25.30;65.10;;;;;;5103021;28;20198;-72
2022/05/16 06:45:56;;;;;;;11.53;9.37;;;25.40;65.70;;;;;;5078141;28;20202;-70
2022/05/16 06:48:24;;;;;;;12.87;9.57;;;25.50;65.60;;;;;;5101876;28;20622;-72
2022/05/16 06:50:52;;;;;;;18.27;9.43;;;25.60;65.50;;;;;;5109097;28;20217;-72
2022/05/16 06:53:27;;;;;;;19.67;10.30;;;25.70;64.70;;;;;;5075569;28;20221;-72
2022/05/16 06:55:56;;;;;;;14.23;9.43;;;25.90;64.00;;;;;;5092913;28;20207;-73
2022/05/16 06:58:24;;;;;;;18.60;9.77;;;26.00;64.10;;;;;;5085920;28;20239;-71
2022/05/16 07:00:51;;;;;;;10.53;9.27;;;26.10;64.00;;;;;;5093083;28;20235;-71
2022/05/16 07:03:18;;;;;;;13.43;9.03;;;26.20;63.30;;;;;;5067700;28;20207;-72
2022/05/16 07:05:48;;;;;;;10.90;8.50;;;26.40;63.10;;;;;;5092257;28;20572;-73
2022/05/16 07:08:16;;;;;;;14.40;9.10;;;26.50;63.10;;;;;;5087704;28;20194;-72
2022/05/16 07:10:48;;;;;;;11.33;8.93;;;26.60;62.80;;;;;;5062051;28;20260;-71
2022/05/16 07:13:24;;;;;;;15.60;9.77;;;26.70;62.20;;;;;;5082943;28;20557;-71
2022/05/16 07:15:51;;;;;;;10.37;8.93;;;26.90;61.80;;;;;;5092098;28;20208;-71
2022/05/16 07:18:19;;;;;;;19.07;9.60;;;27.00;61.50;;;;;;5086636;28;20194;-71
2022/05/16 07:20:46;;;;;;;14.67;9.97;;;27.10;61.30;;;;;;5077710;28;20204;-71
2022/05/16 07:23:13;;;;;;;16.37;10.63;;;27.20;60.60;;;;;;5080235;28;20235;-71
2022/05/16 07:28:26;;;;;;;13.43;10.57;;;27.40;60.00;;;;;;5098072;28;20296;-71
2022/05/16 07:30:53;;;;;;;11.70;10.23;;;27.50;60.00;;;;;;5060180;28;20209;-71
2022/05/16 07:33:21;;;;;;;14.30;10.17;;;27.60;60.00;;;;;;5073346;28;20225;-72
2022/05/16 07:35:52;;;;;;;14.40;10.43;;;27.70;60.00;;;;;;5090488;28;20221;-72
2022/05/16 07:38:21;;;;;;;15.50;9.87;;;27.70;60.00;;;;;;5074935;28;20534;-73
2022/05/16 07:40:49;;;;;;;16.27;8.90;;;27.80;59.70;;;;;;5094025;28;20281;-71
2022/05/16 07:43:18;;;;;;;12.17;9.60;;;27.90;59.20;;;;;;5079346;28;20847;-72
2022/05/16 07:45:45;;;;;;;12.93;8.57;;;28.00;58.20;;;;;;5079725;28;20528;-71
2022/05/16 07:48:13;;;;;;;11.47;8.60;;;28.10;56.40;;;;;;5069198;28;20549;-72
2022/05/16 07:50:42;;;;;;;17.67;8.63;;;28.10;56.80;;;;;;5094163;28;20211;-71
2022/05/16 07:53:13;;;;;;;10.37;8.00;;;28.20;56.20;;;;;;5078820;28;20299;-72
2022/05/16 07:55:46;;;;;;;9.63;7.63;;;28.30;55.40;;;;;;5073569;28;20509;-72
2022/05/16 07:58:13;;;;;;;13.07;7.97;;;28.30;56.10;;;;;;5058743;28;20303;-73
2022/05/16 08:00:41;;;;;;;9.80;7.67;;;28.40;54.00;;;;;;5074197;28;20193;-71
2022/05/16 08:03:12;;;;;;;9.47;7.00;;;28.40;54.50;;;;;;5079172;28;20197;-71
2022/05/16 08:05:40;;;;;;;11.60;6.27;;;28.50;55.40;;;;;;5104718;28;20218;-72
2022/05/16 08:10:56;;;;;;;14.33;7.37;;;28.70;53.70;;;;;;5075688;28;20204;-71
2022/05/16 08:13:24;;;;;;;10.43;6.17;;;28.80;52.90;;;;;;5088990;28;20235;-72
2022/05/16 08:15:51;;;;;;;7.73;5.93;;;28.80;53.10;;;;;;5087487;28;20277;-72
2022/05/16 08:18:18;;;;;;;8.93;5.33;;;29.00;52.80;;;;;;5089187;28;20204;-72
2022/05/16 08:20:47;;;;;;;16.47;6.63;;;29.10;52.90;;;;;;5078499;28;20201;-72
2022/05/16 08:23:17;;;;;;;10.77;5.47;;;29.20;52.70;;;;;;5075696;28;20670;-72
2022/05/16 08:25:45;;;;;;;13.17;5.90;;;29.30;53.10;;;;;;5073769;28;20284;-72
2022/05/16 08:28:13;;;;;;;8.37;5.70;;;29.50;52.90;;;;;;5055712;28;20213;-72
2022/05/16 08:30:41;;;;;;;10.07;5.27;;;29.60;50.80;;;;;;5068157;28;20193;-71
2022/05/16 08:33:08;;;;;;;10.03;5.53;;;29.70;51.10;;;;;;5083814;28;20202;-71
2022/05/16 08:35:35;;;;;;;8.43;4.90;;;29.70;50.00;;;;;;5097856;28;20262;-71
2022/05/16 08:41:02;;;;;;;14.23;5.70;;;29.90;51.30;;;;;;5079895;28;20201;-71
2022/05/16 08:43:51;;;;;;;8.30;5.33;;;29.90;49.40;;;;;;5078475;28;20201;-71
2022/05/16 08:46:46;;;;;;;8.03;4.60;;;29.90;50.00;;;;;;5067730;28;20566;-70
2022/05/16 08:49:24;;;;;;;7.63;5.27;;;30.10;50.40;;;;;;5103914;28;20528;-70
2022/05/16 08:52:01;;;;;;;10.93;5.27;;;30.20;50.20;;;;;;5106699;28;20208;-70
2022/05/16 08:54:35;;;;;;;15.97;5.40;;;30.30;49.80;;;;;;5098583;28;20268;-70
2022/05/16 08:57:04;;;;;;;10.87;4.87;;;30.50;48.70;;;;;;5075047;28;20209;-70
2022/05/16 08:59:35;;;;;;;11.93;5.23;;;30.50;48.80;;;;;;5106392;28;20197;-69
2022/05/16 09:02:17;;;;;;;9.37;5.30;;;30.70;49.30;;;;;;5087618;28;20536;-71
2022/05/16 09:04:58;;;;;;;9.00;4.67;;;30.70;46.70;;;;;;5067567;28;20209;-71
2022/05/16 09:07:59;;;;;;;10.87;4.87;;;30.70;47.40;;;;;;5092944;28;20193;-71
2022/05/16 09:10:53;;;;;;;7.33;5.10;;;30.60;46.40;;;;;;5037800;28;20201;-71
2022/05/16 09:13:32;;;;;;;11.33;5.07;;;30.60;46.70;;;;;;5079100;28;20563;-70
2022/05/16 09:16:06;;;;;;;9.63;4.57;;;30.60;46.80;;;;;;5086884;28;20209;-69
2022/05/16 09:18:36;;;;;;;8.90;4.50;;;30.70;47.40;;;;;;5088679;28;20200;-71
2022/05/16 09:21:16;;;;;;;14.07;5.70;;;30.90;46.70;;;;;;5085359;28;20641;-69
2022/05/16 09:23:59;;;;;;;8.20;5.77;;;31.10;46.40;;;;;;5076940;28;20232;-69
2022/05/16 09:26:50;;;;;;;10.83;5.47;;;31.30;46.40;;;;;;5086760;28;20197;-69
2022/05/16 09:29:23;;;;;;;8.37;4.90;;;31.40;45.50;;;;;;5078907;28;20202;-68
2022/05/16 09:31:54;;;;;;;5.20;4.60;;;31.60;46.70;;;;;;5070916;28;20228;-68
2022/05/16 09:34:27;;;;;;;9.20;5.17;;;31.60;44.70;;;;;;5061111;28;20229;-68
2022/05/16 09:36:54;;;;;;;19.83;6.00;;;31.60;44.70;;;;;;5087676;28;20193;-71
2022/05/16 09:39:25;;;;;;;5.87;4.40;;;31.50;45.00;;;;;;5092542;28;20371;-71
2022/05/16 09:42:10;;;;;;;8.83;4.60;;;31.60;45.00;;;;;;5087910;28;20193;-73
2022/05/16 09:44:46;;;;;;;9.43;5.50;;;31.60;44.40;;;;;;5078556;28;20567;-70
2022/05/16 09:47:28;;;;;;;5.60;4.47;;;31.60;44.00;;;;;;5097218;28;20197;-71
2022/05/16 09:50:24;;;;;;;10.03;4.70;;;31.60;44.30;;;;;;5081612;28;20216;-71
2022/05/16 09:53:09;;;;;;;16.60;5.87;;;31.70;44.90;;;;;;5080231;28;20239;-71
2022/05/16 09:55:42;;;;;;;7.83;4.63;;;31.90;44.30;;;;;;5076539;28;20267;-71
2022/05/16 09:58:18;;;;;;;6.77;4.43;;;31.90;44.00;;;;;;5059849;28;20252;-71
2022/05/16 10:01:01;;;;;;;9.50;4.93;;;31.90;43.90;;;;;;5056245;28;20665;-71
2022/05/16 10:03:32;;;;;;;10.80;4.83;;;31.90;44.00;;;;;;5073904;28;20213;-72
2022/05/16 10:06:08;;;;;;;7.10;4.13;;;32.00;44.10;;;;;;5073589;28;20251;-71
2022/05/16 10:08:38;;;;;;;6.87;4.60;;;32.20;44.00;;;;;;5076553;28;20202;-71
2022/05/16 10:11:08;;;;;;;9.70;5.00;;;32.30;44.20;;;;;;5081770;28;20209;-71
2022/05/16 10:13:36;;;;;;;7.73;4.67;;;32.50;43.60;;;;;;5076545;28;20636;-72
2022/05/16 10:16:07;;;;;;;10.70;5.27;;;32.50;43.40;;;;;;5064128;28;20202;-72
2022/05/16 10:18:47;;;;;;;10.17;4.50;;;32.70;44.20;;;;;;5076958;28;20206;-71
2022/05/16 10:21:22;;;;;;;5.77;4.40;;;32.80;44.20;;;;;;5084074;28;20203;-71
2022/05/16 10:23:50;;;;;;;9.57;4.93;;;32.90;43.90;;;;;;5070544;28;20245;-72
2022/05/16 10:26:20;;;;;;;8.40;4.87;;;32.90;43.20;;;;;;5063800;28;20206;-71
2022/05/16 10:28:57;;;;;;;9.73;4.77;;;33.00;43.40;;;;;;5086070;28;20226;-71
2022/05/16 10:34:52;;;;;;;8.50;4.70;;;33.20;43.10;;;;;;5071507;28;20229;-72
2022/05/16 10:37:20;;;;;;;6.60;4.53;;;33.30;42.90;;;;;;5039846;28;20220;-71
2022/05/16 10:40:11;;;;;;;7.13;4.03;;;33.40;43.00;;;;;;5070557;28;20236;-71
2022/05/16 10:42:50;;;;;;;9.10;5.27;;;33.40;42.80;;;;;;5063532;28;20320;-72
2022/05/16 10:45:24;;;;;;;8.80;4.00;;;33.50;43.20;;;;;;5054554;28;20218;-71
2022/05/16 10:47:51;;;;;;;6.60;4.67;;;33.60;42.40;;;;;;5060527;28;20788;-71
2022/05/16 10:50:23;;;;;;;9.63;4.13;;;33.60;42.90;;;;;;5072081;28;20210;-72
2022/05/16 10:52:58;;;;;;;11.23;4.60;;;33.70;43.10;;;;;;5065707;28;20297;-72
2022/05/16 10:55:31;;;;;;;9.03;4.77;;;33.80;42.90;;;;;;5058077;28;20235;-72
2022/05/16 10:58:17;;;;;;;4.87;3.90;;;33.80;42.10;;;;;;5061979;28;20302;-72
2022/05/16 11:00:56;;;;;;;6.80;4.20;;;33.90;40.20;;;;;;5062629;28;20230;-72
2022/05/16 11:04:14;;;;;;;7.77;4.17;;;33.80;40.50;;;;;;5092106;28;20213;-71
2022/05/16 11:07:09;;;;;;;5.70;4.03;;;33.80;40.00;;;;;;5059304;28;20225;-72
2022/05/16 11:09:57;;;;;;;6.60;3.70;;;33.80;41.40;;;;;;5056096;28;20211;-72
2022/05/16 11:12:31;;;;;;;6.40;3.93;;;33.80;41.30;;;;;;5096370;28;20198;-72
2022/05/16 11:15:36;;;;;;;4.97;3.80;;;33.80;41.90;;;;;;5055914;28;20241;-71
2022/05/16 11:18:40;;;;;;;9.90;5.00;;;33.80;42.10;;;;;;5045135;28;20218;-71
2022/05/16 11:21:55;;;;;;;6.97;3.80;;;33.80;40.50;;;;;;5070367;28;20212;-72
2022/05/16 11:24:44;;;;;;;7.50;3.70;;;33.90;41.00;;;;;;5034283;28;20256;-72
2022/05/16 11:27:42;;;;;;;5.43;3.87;;;33.90;41.60;;;;;;5065585;28;20217;-71
2022/05/16 11:30:19;;;;;;;5.93;3.93;;;33.90;41.60;;;;;;5055524;28;20220;-71
2022/05/16 11:32:56;;;;;;;7.43;4.47;;;34.00;42.40;;;;;;5059785;28;20234;-71
2022/05/16 11:35:26;;;;;;;4.90;3.67;;;34.00;41.90;;;;;;5052885;28;20222;-71
2022/05/16 11:38:02;;;;;;;10.43;3.60;;;34.00;41.00;;;;;;5086084;28;20202;-72
2022/05/16 11:40:44;;;;;;;6.97;3.73;;;34.00;41.00;;;;;;5087919;28;20293;-71
2022/05/16 11:43:20;;;;;;;6.60;3.87;;;34.10;41.80;;;;;;5066012;28;20221;-71
2022/05/16 11:46:09;;;;;;;5.40;4.03;;;34.20;42.40;;;;;;5067592;28;20201;-71
2022/05/16 11:48:51;;;;;;;8.07;4.40;;;34.20;42.20;;;;;;5063689;28;20201;-71
2022/05/16 11:51:49;;;;;;;9.83;3.90;;;34.30;41.90;;;;;;5082188;28;20209;-71
2022/05/16 11:54:22;;;;;;;11.63;4.47;;;34.30;41.20;;;;;;5061420;28;20300;-72
2022/05/16 12:02:29;;;;;;;7.70;3.90;;;34.20;38.80;;;;;;5057342;28;20204;-71
2022/05/16 12:05:02;;;;;;;7.27;4.10;;;34.10;39.80;;;;;;5062326;28;20229;-71
2022/05/16 12:07:44;;;;;;;7.70;4.40;;;34.00;39.50;;;;;;5056820;28;20289;-71
2022/05/16 12:10:14;;;;;;;6.30;4.03;;;33.90;40.50;;;;;;5088934;28;20212;-72
2022/05/16 12:12:45;;;;;;;6.30;3.70;;;33.90;41.60;;;;;;5057985;28;20206;-71
2022/05/16 12:15:25;;;;;;;6.03;4.10;;;33.90;42.50;;;;;;5059714;28;20218;-71
2022/05/16 12:18:05;;;;;;;8.07;4.07;;;33.90;41.60;;;;;;5059530;28;20237;-71
2022/05/16 12:20:44;;;;;;;8.60;4.60;;;34.00;42.40;;;;;;5090728;28;20305;-71
2022/05/16 12:23:33;;;;;;;7.23;4.47;;;34.00;42.70;;;;;;5100940;28;20248;-71
2022/05/16 12:26:00;;;;;;;7.43;4.10;;;34.10;42.80;;;;;;5066154;28;20214;-71
2022/05/16 12:28:30;;;;;;;6.47;4.80;;;34.10;43.00;;;;;;5067788;28;20260;-70
2022/05/16 12:30:59;;;;;;;5.93;4.57;;;34.20;43.70;;;;;;5093291;28;20201;-71
2022/05/16 12:33:42;;;;;;;6.47;4.47;;;34.20;44.40;;;;;;5062505;28;20255;-71
2022/05/16 12:36:14;;;;;;;7.47;4.80;;;34.20;43.00;;;;;;5059239;28;20241;-71
2022/05/16 12:38:42;;;;;;;6.17;4.43;;;34.20;43.50;;;;;;5099714;28;20255;-70
2022/05/16 12:41:39;;;;;;;7.00;4.30;;;34.20;43.30;;;;;;5093733;28;20198;-71
2022/05/16 12:44:25;;;;;;;6.10;4.30;;;34.20;43.90;;;;;;5065501;28;20214;-71
2022/05/16 12:47:07;;;;;;;6.80;4.50;;;34.20;43.20;;;;;;5059842;28;20281;-71
2022/05/16 12:50:05;;;;;;;9.63;4.83;;;34.10;41.20;;;;;;5067692;28;20206;-72
2022/05/16 12:53:30;;;;;;;5.27;4.77;;;34.10;42.40;;;;;;5097962;28;20318;-70
2022/05/16 12:56:21;;;;;;;6.10;4.50;;;34.10;44.60;;;;;;5039336;28;20798;-71
2022/05/16 12:58:58;;;;;;;8.17;4.80;;;34.00;44.70;;;;;;5044481;28;20613;-71
2022/05/16 13:01:40;;;;;;;8.83;4.77;;;34.00;44.10;;;;;;5056848;28;20309;-71
2022/05/16 13:04:32;;;;;;;7.70;4.80;;;34.00;43.40;;;;;;5066847;28;20248;-71
2022/05/16 13:07:26;;;;;;;8.30;5.23;;;33.90;44.80;;;;;;5057666;28;20252;-71
2022/05/16 13:09:53;;;;;;;7.03;4.53;;;33.90;43.90;;;;;;5066057;28;20208;-71
2022/05/16 13:13:06;;;;;;;6.23;5.00;;;33.90;43.60;;;;;;5071544;28;20210;-71
2022/05/16 13:15:53;;;;;;;5.50;4.70;;;33.90;44.60;;;;;;5004818;28;20243;-71
2022/05/16 13:18:26;;;;;;;6.43;4.33;;;33.90;43.70;;;;;;4969826;28;20282;-71
2022/05/16 13:20:59;;;;;;;7.33;4.83;;;33.90;44.30;;;;;;5041452;28;20674;-70
2022/05/16 13:23:26;;;;;;;6.47;4.23;;;33.80;44.20;;;;;;5099941;28;20230;-71
2022/05/16 13:31:38;;;;;;;7.27;5.17;;;33.80;43.60;;;;;;5057951;28;20210;-70
2022/05/16 13:34:06;;;;;;;4.93;4.10;;;33.80;43.10;;;;;;5061755;28;20202;-70
2022/05/16 13:36:33;;;;;;;10.07;4.53;;;33.70;43.30;;;;;;5070820;28;20679;-70
2022/05/16 13:39:11;;;;;;;6.70;4.37;;;33.60;43.20;;;;;;5063468;28;20281;-70
2022/05/16 13:41:39;;;;;;;11.17;4.53;;;33.60;43.30;;;;;;5054966;28;20287;-71
2022/05/16 13:44:12;;;;;;;6.47;4.17;;;33.60;42.90;;;;;;5066494;28;20200;-71
2022/05/16 13:46:39;;;;;;;10.27;4.20;;;33.50;42.50;;;;;;5055163;28;20325;-70
2022/05/16 13:49:10;;;;;;;10.60;5.10;;;33.50;42.70;;;;;;5062652;28;20285;-71